Aeroporto :
LOGIN :

Iscrizione | Disclaimer

   EN    FR    IT 

 










Sommario :    VFR   VFR Marginale   IFR   IFR Intensivo   IFR Molto Intensivo
Visibilità : 
Base nubi : 
>= 8 km
>= 3000ft
5 / 8 km
1000 / 3000 ft
1500m / 5 km
500 / 1000 ft
800 / 1500m
200 / 500 ft
< 800m
< 200 ft
Simboli :   Temporali  Nebbia  Neve Forte  Precipitazioni Forti  Vento > 20 kt
SIGMETs :   Varie  Temporali  Ghiacco  Turbolenza  Onda orograficha  Ceneri Vulcaniche







- Altitudine del aeroporto : 1411 ft
- Codice IATA : GVA


LSGG - Genève Cointrin

ULTIMO METAR :
  • 190150Z AUTO 21002KT 9999 NCD 00/M02 Q1022 NOSIG

METARs OBSOLETI :
  • 190120Z AUTO 32003KT 9999 NSC 00/M02 Q1022 NOSIG
  • 190050Z AUTO VRB01KT CAVOK 01/M02 Q1023 NOSIG
  • 190020Z AUTO VRB01KT CAVOK 01/M01 Q1023 NOSIG
  • 182350Z AUTO VRB01KT CAVOK 02/M01 Q1023 NOSIG
  • 182320Z AUTO 32002KT 9999 NSC 02/M01 Q1023 NOSIG

TAF TAF LSGG
Valido dal 19 a 00 ore il 20 a 06 ore UTC


182325Z 1900/2006 05005KT 9999 FEW080 TX10/1915Z TNM01/1906Z TN02/2006Z
BECMG 1900/1902 CAVOK
BECMG 1910/1912 05012KT 9999 FEW040
BECMG 1918/1921 05015G25KT
ATIS : +41 22 417 40 81
Nessun NOTAM noto per questo aeroporto.



MetMap, La meteo Aeronautica in un colpo d'occhio ! - Copyright ORBIFLY Dicembre 2007 - Disclaimer

ORBIFLY MET'MAP TEAM :

Programmazione e sviluppo : Alexandra Zaïnal
Concezione e sviluppo : Baudouin d'Aumeries
Co-Programmazione e sviluppo : Marc-Olivier Méhu
Supporto tecnico e logistico : Manuel Goepfert
Aiuto per la traduzione : Arnaldo La Scala

Contatto : metmap@orbifly.com




FONTI E CREDITI :

   NOAA